Time;durP1;ratioP1;P1;durP2;ratioP2;P2;SDS_P1;SDS_P2;PMS_P1;PMS_P2;Temp;Humidity;BMP_temperature;BMP_pressure;BME280_temperature;BME280_humidity;BME280_pressure;Samples;Min_cycle;Max_cycle;Signal;HPM_P1;HPM_P2
2022/09/30 00:01:18;;;;;;;9.77;9.07;;;;;;;6.87;100.00;96158.75;5029035;28;20203;-62
2022/09/30 00:03:48;;;;;;;10.57;9.70;;;;;;;6.89;100.00;96161.22;5001630;28;20327;-61
2022/09/30 00:06:16;;;;;;;11.10;10.20;;;;;;;6.88;100.00;96155.13;5024445;28;20635;-63
2022/09/30 00:08:45;;;;;;;10.00;9.20;;;;;;;6.86;100.00;96159.75;4975414;28;20300;-59
2022/09/30 00:11:16;;;;;;;10.10;9.40;;;;;;;6.86;100.00;96157.13;5027907;28;20204;-60
2022/09/30 00:13:47;;;;;;;10.30;9.50;;;;;;;6.82;100.00;96161.13;5027878;28;20223;-62
2022/09/30 00:16:16;;;;;;;9.97;9.17;;;;;;;6.75;100.00;96154.97;5025774;28;20228;-58
2022/09/30 00:18:45;;;;;;;10.43;9.53;;;;;;;6.63;100.00;96144.09;5008833;28;20208;-61
2022/09/30 00:21:16;;;;;;;9.60;8.50;;;;;;;6.56;100.00;96140.56;5026511;28;20207;-58
2022/09/30 00:23:45;;;;;;;9.40;8.70;;;;;;;6.51;100.00;96141.13;4977814;28;20216;-63
2022/09/30 00:26:16;;;;;;;9.37;8.67;;;;;;;6.44;100.00;96141.06;4961465;28;20976;-60
2022/09/30 00:28:45;;;;;;;9.17;8.37;;;;;;;6.41;100.00;96148.50;5028557;28;20294;-61
2022/09/30 00:31:16;;;;;;;9.60;8.80;;;;;;;6.39;100.00;96151.28;5025392;28;20216;-61
2022/09/30 00:34:05;;;;;;;9.27;8.67;;;;;;;6.35;100.00;96156.13;5026448;28;20220;-63
2022/09/30 00:36:38;;;;;;;9.60;8.60;;;;;;;6.32;100.00;96155.66;5024926;28;20227;-61
2022/09/30 00:39:08;;;;;;;9.03;8.23;;;;;;;6.26;100.00;96159.84;5022859;28;20214;-60
2022/09/30 00:41:36;;;;;;;9.83;8.47;;;;;;;6.20;100.00;96155.28;4975593;28;20225;-57
2022/09/30 00:44:37;;;;;;;9.50;8.67;;;;;;;6.20;100.00;96155.28;5022782;28;20630;-60
2022/09/30 00:47:24;;;;;;;9.13;8.33;;;;;;;6.18;100.00;96157.28;5005511;28;20326;-62
2022/09/30 00:49:53;;;;;;;9.80;9.07;;;;;;;6.20;100.00;96157.91;5026694;28;20238;-62
2022/09/30 00:52:23;;;;;;;11.17;9.07;;;;;;;6.19;100.00;96164.19;5023076;28;20373;-61
2022/09/30 00:54:53;;;;;;;9.20;8.53;;;;;;;6.19;100.00;96164.19;5027683;28;20702;-61
2022/09/30 00:57:21;;;;;;;10.17;9.17;;;;;;;6.21;100.00;96173.53;4978870;28;21628;-58
2022/09/30 00:59:51;;;;;;;10.67;9.77;;;;;;;6.25;100.00;96166.09;5022970;28;20293;-60
2022/09/30 01:02:20;;;;;;;10.03;9.23;;;;;;;6.27;100.00;96163.28;5021374;28;20496;-62
2022/09/30 01:04:48;;;;;;;9.87;9.07;;;;;;;6.27;100.00;96164.13;5009811;28;20765;-61
2022/09/30 01:07:18;;;;;;;9.63;8.70;;;;;;;6.25;100.00;96162.66;5022070;28;20410;-61
2022/09/30 01:09:48;;;;;;;9.73;9.03;;;;;;;6.29;100.00;96171.81;5027572;28;20215;-58
2022/09/30 01:12:18;;;;;;;9.63;8.73;;;;;;;6.27;100.00;96182.53;4972402;28;20933;-62
2022/09/30 01:14:52;;;;;;;10.63;9.63;;;;;;;6.28;100.00;96181.53;5028462;28;20231;-57
2022/09/30 01:17:25;;;;;;;9.27;8.47;;;;;;;6.30;100.00;96179.53;5023616;28;20631;-62
2022/09/30 01:20:11;;;;;;;10.43;9.63;;;;;;;6.26;100.00;96177.44;5002401;28;20216;-60
2022/09/30 01:22:45;;;;;;;10.33;9.53;;;;;;;6.11;100.00;96183.50;5023706;28;20460;-59
2022/09/30 01:25:46;;;;;;;9.70;8.80;;;;;;;6.12;100.00;96189.56;5023988;28;20306;-56
2022/09/30 01:28:59;;;;;;;10.30;9.40;;;;;;;6.19;100.00;96188.69;4974552;28;21420;-61
2022/09/30 01:31:42;;;;;;;10.90;9.07;;;;;;;6.32;100.00;96197.75;4951035;28;20277;-63
2022/09/30 01:34:16;;;;;;;10.07;9.07;;;;;;;6.36;100.00;96199.84;4930794;28;20323;-59
2022/09/30 01:36:50;;;;;;;10.03;9.13;;;;;;;6.38;100.00;96197.03;4953429;28;20593;-58
2022/09/30 01:39:27;;;;;;;9.77;8.93;;;;;;;6.29;100.00;96183.16;4952317;28;20558;-62
2022/09/30 01:42:01;;;;;;;11.87;10.67;;;;;;;6.32;100.00;96195.13;4952809;28;20321;-63
2022/09/30 01:44:34;;;;;;;10.27;9.30;;;;;;;6.33;100.00;96200.22;4900208;28;21035;-60
2022/09/30 01:47:09;;;;;;;9.77;9.03;;;;;;;6.40;100.00;96199.47;4951269;28;20312;-63
2022/09/30 01:49:42;;;;;;;10.20;9.30;;;;;;;6.46;100.00;96204.84;4932059;28;20608;-61
2022/09/30 01:52:15;;;;;;;9.27;8.57;;;;;;;6.56;100.00;96206.38;4950304;28;20392;-63
2022/09/30 01:54:47;;;;;;;10.00;9.10;;;;;;;6.56;100.00;96204.53;4954842;28;20326;-61
2022/09/30 01:57:20;;;;;;;9.63;8.83;;;;;;;6.57;100.00;96200.09;4950690;28;20289;-59
2022/09/30 02:03:33;;;;;;;9.40;8.60;;;;;;;6.53;100.00;96202.28;4949765;28;20205;-62
2022/09/30 02:06:04;;;;;;;12.40;8.90;;;;;;;6.51;100.00;96213.00;4969798;28;20551;-61
2022/09/30 02:08:38;;;;;;;9.47;8.47;;;;;;;6.47;100.00;96205.66;5032691;28;20208;-57
2022/09/30 02:11:10;;;;;;;9.63;8.47;;;;;;;6.37;100.00;96203.28;5031118;28;20288;-62
2022/09/30 02:13:42;;;;;;;9.73;8.17;;;;;;;6.35;100.00;96207.91;5031452;28;20234;-62
2022/09/30 02:16:16;;;;;;;11.07;8.83;;;;;;;6.25;100.00;96204.72;4981281;28;20796;-65
2022/09/30 02:18:49;;;;;;;8.83;8.13;;;;;;;6.31;100.00;96223.25;5001935;28;20485;-59
2022/09/30 02:21:21;;;;;;;10.53;8.80;;;;;;;6.30;100.00;96223.41;4996969;28;20247;-63
2022/09/30 02:23:53;;;;;;;9.63;8.27;;;;;;;6.21;100.00;96217.41;5003800;28;20304;-62
2022/09/30 02:26:24;;;;;;;9.73;8.93;;;;;;;6.30;100.00;96224.25;5033479;28;20625;-57
2022/09/30 02:28:56;;;;;;;9.20;8.40;;;;;;;6.28;100.00;96223.63;5031771;28;20207;-63
2022/09/30 02:31:25;;;;;;;9.33;8.43;;;;;;;6.21;100.00;96215.63;5026804;28;20231;-61
2022/09/30 02:33:58;;;;;;;9.20;8.40;;;;;;;6.18;100.00;96217.78;4973195;28;21552;-61
2022/09/30 02:36:30;;;;;;;8.83;8.23;;;;;;;6.18;100.00;96215.16;4974269;28;20243;-62
2022/09/30 02:39:02;;;;;;;9.23;8.53;;;;;;;6.17;100.00;96216.97;5022567;28;20219;-58
2022/09/30 02:41:34;;;;;;;9.03;8.27;;;;;;;6.18;100.00;96220.41;5030503;28;20204;-56
2022/09/30 02:44:03;;;;;;;9.17;8.47;;;;;;;6.16;100.00;96211.88;5032185;28;20699;-62
2022/09/30 02:46:38;;;;;;;8.87;8.00;;;;;;;6.20;100.00;96216.63;5028200;28;20219;-61
2022/09/30 02:49:17;;;;;;;8.70;8.10;;;;;;;6.15;100.00;96218.97;5016395;28;20270;-63
2022/09/30 02:51:52;;;;;;;9.00;8.27;;;;;;;6.11;100.00;96219.50;5016651;28;20195;-64
2022/09/30 02:54:28;;;;;;;9.13;8.43;;;;;;;6.05;100.00;96226.28;5027408;28;20203;-63
2022/09/30 02:56:59;;;;;;;9.40;8.43;;;;;;;5.99;100.00;96224.34;5032613;28;20231;-59
2022/09/30 02:59:28;;;;;;;8.77;8.07;;;;;;;5.97;100.00;96226.34;5007805;28;20632;-60
2022/09/30 03:01:56;;;;;;;8.43;7.83;;;;;;;5.96;100.00;96224.69;5029202;28;20269;-61
2022/09/30 03:04:29;;;;;;;9.47;8.50;;;;;;;5.97;100.00;96224.53;5029167;28;20321;-64
2022/09/30 03:06:57;;;;;;;9.27;8.53;;;;;;;5.98;100.00;96226.16;4969990;28;20632;-60
2022/09/30 03:09:26;;;;;;;9.00;8.30;;;;;;;5.96;100.00;96215.00;5026992;28;20505;-63
2022/09/30 03:12:01;;;;;;;9.40;8.63;;;;;;;5.91;100.00;96220.00;5030779;28;20214;-62
2022/09/30 03:14:38;;;;;;;8.00;7.50;;;;;;;5.84;100.00;96219.88;5028195;28;20219;-60
2022/09/30 03:17:33;;;;;;;9.47;7.77;;;;;;;5.74;100.00;96222.75;5028022;28;20324;-65
2022/09/30 03:20:24;;;;;;;8.10;7.50;;;;;;;5.64;100.00;96214.28;5023595;28;20288;-57
2022/09/30 03:23:05;;;;;;;9.37;8.37;;;;;;;5.70;100.00;96231.19;5022738;28;20212;-54
2022/09/30 03:25:40;;;;;;;8.83;8.03;;;;;;;5.64;100.00;96233.50;5021220;28;20361;-51
2022/09/30 03:28:17;;;;;;;9.57;8.77;;;;;;;5.55;100.00;96236.38;5026735;28;20268;-55
2022/09/30 03:30:49;;;;;;;8.90;7.57;;;;;;;5.42;100.00;96232.50;5023894;28;20235;-60
2022/09/30 03:33:22;;;;;;;16.93;8.30;;;;;;;5.28;100.00;96233.28;5023858;28;20216;-62
2022/09/30 03:35:58;;;;;;;8.03;7.37;;;;;;;5.13;100.00;96231.41;5024693;28;20236;-61
2022/09/30 03:38:37;;;;;;;8.83;8.03;;;;;;;5.03;100.00;96228.16;4964942;28;20223;-61
2022/09/30 03:41:10;;;;;;;8.63;8.03;;;;;;;4.96;100.00;96235.91;5025242;28;20207;-62
2022/09/30 03:43:43;;;;;;;9.10;8.40;;;;;;;4.86;100.00;96241.38;5022874;28;20235;-61
2022/09/30 03:46:18;;;;;;;9.87;8.87;;;;;;;4.85;100.00;96244.16;5000695;28;20856;-62
2022/09/30 03:48:47;;;;;;;10.60;9.53;;;;;;;4.85;100.00;96239.72;5029330;28;20294;-64
2022/09/30 03:51:17;;;;;;;10.00;9.10;;;;;;;4.78;100.00;96244.84;5027810;28;20675;-63
2022/09/30 03:53:46;;;;;;;10.53;9.60;;;;;;;4.73;100.00;96254.19;4952332;28;20219;-65
2022/09/30 03:56:15;;;;;;;10.33;9.43;;;;;;;4.61;100.00;96238.03;5025425;28;20238;-64
2022/09/30 03:58:46;;;;;;;24.40;11.07;;;;;;;4.69;100.00;96261.59;5031620;28;20301;-61
2022/09/30 04:01:20;;;;;;;12.80;10.03;;;;;;;4.62;100.00;96274.56;5000602;28;20715;-62
2022/09/30 04:03:51;;;;;;;16.10;9.77;;;;;;;4.56;100.00;96272.63;5031631;28;20676;-63
2022/09/30 04:06:22;;;;;;;15.77;8.03;;;;;;;4.49;100.00;96266.44;5026221;28;20602;-65
2022/09/30 04:08:52;;;;;;;9.87;8.07;;;;;;;4.45;100.00;96262.50;4971031;28;20659;-64
2022/09/30 04:11:21;;;;;;;8.77;8.10;;;;;;;4.40;100.00;96265.63;5020604;28;20207;-65
2022/09/30 04:13:50;;;;;;;9.07;8.37;;;;;;;4.44;100.00;96287.09;5032056;28;20203;-57
2022/09/30 04:16:18;;;;;;;11.63;10.43;;;;;;;4.58;100.00;96286.41;5004720;28;20592;-61
2022/09/30 04:18:47;;;;;;;11.77;10.70;;;;;;;4.77;100.00;96294.88;5030065;28;20674;-60
2022/09/30 04:21:16;;;;;;;13.87;11.17;;;;;;;4.92;100.00;96293.19;5029911;28;20204;-63
2022/09/30 04:23:46;;;;;;;12.37;11.17;;;;;;;5.10;100.00;96299.19;5031725;28;20199;-63
2022/09/30 04:26:16;;;;;;;13.80;12.43;;;;;;;5.21;100.00;96302.25;4983918;28;20302;-63
2022/09/30 04:28:44;;;;;;;13.07;11.93;;;;;;;5.33;100.00;96293.97;5028734;28;20218;-64
2022/09/30 04:31:16;;;;;;;14.00;12.13;;;;;;;5.46;100.00;96301.28;5017024;28;20304;-66
2022/09/30 04:33:45;;;;;;;13.67;12.47;;;;;;;5.55;100.00;96295.00;4994782;28;20601;-62
2022/09/30 04:36:13;;;;;;;12.77;11.60;;;;;;;5.62;100.00;96287.25;5021242;28;20561;-65
2022/09/30 04:38:42;;;;;;;11.97;10.33;;;;;;;5.70;100.00;96289.00;5028022;28;20204;-60
2022/09/30 04:41:16;;;;;;;10.87;9.97;;;;;;;5.57;100.00;96276.44;4932781;28;20246;-66
2022/09/30 04:43:46;;;;;;;11.07;9.97;;;;;;;5.64;100.00;96293.13;4966673;28;20219;-61
2022/09/30 04:46:15;;;;;;;12.53;11.43;;;;;;;5.69;100.00;96296.06;4991220;28;20234;-57
2022/09/30 04:48:45;;;;;;;10.70;9.70;;;;;;;5.77;100.00;96292.56;5004594;28;20742;-63
2022/09/30 04:51:14;;;;;;;12.00;10.90;;;;;;;5.82;100.00;96299.91;4987856;28;20288;-66
2022/09/30 04:53:43;;;;;;;10.70;9.70;;;;;;;5.90;100.00;96305.94;5030585;28;20200;-56
2022/09/30 04:56:13;;;;;;;10.37;9.47;;;;;;;5.93;100.00;96310.03;5026445;28;20314;-64
2022/09/30 04:58:42;;;;;;;10.37;9.47;;;;;;;5.98;100.00;96305.06;4983093;28;20697;-64
2022/09/30 05:01:12;;;;;;;11.70;10.60;;;;;;;6.05;100.00;96307.81;5026550;28;20689;-65
2022/09/30 05:03:42;;;;;;;11.47;10.43;;;;;;;6.10;100.00;96310.75;4993643;28;20226;-58
2022/09/30 05:06:11;;;;;;;13.20;11.20;;;;;;;6.05;100.00;96294.66;4990064;28;20579;-67
2022/09/30 05:08:41;;;;;;;11.23;10.07;;;;;;;6.14;100.00;96300.69;5028692;28;20682;-59
2022/09/30 05:11:17;;;;;;;10.73;9.83;;;;;;;6.16;100.00;96303.94;5026429;28;20211;-66
2022/09/30 05:13:46;;;;;;;12.27;9.97;;;;;;;6.18;100.00;96309.84;4940685;28;21568;-60
2022/09/30 05:16:15;;;;;;;13.13;11.60;;;;;;;6.24;100.00;96317.03;5024753;28;20387;-57
2022/09/30 05:18:45;;;;;;;13.20;12.07;;;;;;;6.28;100.00;96317.50;4998575;28;20226;-62
2022/09/30 05:21:15;;;;;;;15.30;13.73;;;;;;;6.31;100.00;96323.22;5011331;28;20212;-60
2022/09/30 05:23:44;;;;;;;14.17;12.80;;;;;;;6.35;100.00;96323.66;4998379;28;20214;-61
2022/09/30 05:26:12;;;;;;;13.57;12.10;;;;;;;6.41;100.00;96337.94;5021337;28;20330;-58
2022/09/30 05:28:43;;;;;;;14.73;13.20;;;;;;;6.46;100.00;96344.31;4980876;28;20672;-63
2022/09/30 05:31:12;;;;;;;13.57;12.27;;;;;;;6.47;100.00;96350.38;5026336;28;20988;-58
2022/09/30 05:33:41;;;;;;;20.90;14.17;;;;;;;6.43;100.00;96347.28;5006316;28;20668;-63
2022/09/30 05:36:12;;;;;;;12.77;11.57;;;;;;;6.53;100.00;96362.03;5009735;28;20326;-64
2022/09/30 05:38:41;;;;;;;13.17;11.87;;;;;;;6.52;100.00;96350.66;4997310;28;20211;-62
2022/09/30 05:41:11;;;;;;;18.13;13.37;;;;;;;6.54;100.00;96355.75;5028443;28;20271;-54
2022/09/30 05:43:40;;;;;;;13.30;12.07;;;;;;;6.49;100.00;96343.94;4982405;28;20529;-60
2022/09/30 05:46:13;;;;;;;13.30;12.10;;;;;;;6.56;100.00;96362.47;5024034;28;20238;-55
2022/09/30 05:48:42;;;;;;;12.20;11.00;;;;;;;6.55;100.00;96362.66;5028405;28;20274;-61
2022/09/30 05:51:11;;;;;;;12.63;11.40;;;;;;;6.51;100.00;96370.06;4988748;28;20273;-58
2022/09/30 05:53:41;;;;;;;13.03;11.83;;;;;;;6.56;100.00;96374.81;5002416;28;20332;-60
2022/09/30 05:56:10;;;;;;;16.83;13.07;;;;;;;6.49;100.00;96385.22;5030569;28;20243;-54
2022/09/30 05:58:39;;;;;;;15.50;12.83;;;;;;;6.51;100.00;96381.44;5024881;28;20541;-60
2022/09/30 06:01:09;;;;;;;12.90;11.40;;;;;;;6.51;100.00;96376.19;4973405;28;20250;-60
2022/09/30 06:03:42;;;;;;;13.77;12.20;;;;;;;6.58;100.00;96375.47;5024111;28;20208;-64
2022/09/30 06:06:11;;;;;;;15.40;13.90;;;;;;;6.64;100.00;96372.94;5012307;28;20696;-54
2022/09/30 06:08:40;;;;;;;14.87;13.57;;;;;;;6.74;100.00;96383.19;5004978;28;20215;-65
2022/09/30 06:11:11;;;;;;;13.63;12.40;;;;;;;6.92;100.00;96388.13;5029842;28;20425;-60
2022/09/30 06:13:40;;;;;;;14.73;13.23;;;;;;;7.04;100.00;96390.31;5031806;28;20626;-62
2022/09/30 06:16:09;;;;;;;14.20;12.90;;;;;;;7.06;100.00;96399.66;4983445;28;20323;-57
2022/09/30 06:18:40;;;;;;;13.03;11.83;;;;;;;7.16;100.00;96411.75;5023546;28;20235;-63
2022/09/30 06:21:11;;;;;;;13.80;12.57;;;;;;;7.16;100.00;96415.22;5013903;28;20294;-56
2022/09/30 06:23:40;;;;;;;13.57;12.00;;;;;;;7.08;100.00;96405.56;5002861;28;20230;-60
2022/09/30 06:26:12;;;;;;;12.30;11.20;;;;;;;7.09;100.00;96409.03;5030526;28;20239;-62
2022/09/30 06:28:40;;;;;;;13.23;11.93;;;;;;;7.04;100.00;96417.47;5027346;28;20668;-61
2022/09/30 06:31:10;;;;;;;12.83;11.73;;;;;;;7.01;100.00;96417.81;4984077;28;20261;-63
2022/09/30 06:33:38;;;;;;;11.00;9.90;;;;;;;7.14;100.00;96425.09;5021507;28;20207;-60
2022/09/30 06:36:07;;;;;;;12.57;11.47;;;;;;;7.25;100.00;96426.47;5026177;28;20228;-57
2022/09/30 06:38:38;;;;;;;12.50;11.40;;;;;;;7.30;100.00;96433.81;4999471;28;20228;-61
2022/09/30 06:41:07;;;;;;;12.13;11.03;;;;;;;7.53;100.00;96439.00;5012999;28;20610;-57
2022/09/30 06:43:36;;;;;;;12.90;11.80;;;;;;;7.75;100.00;96439.88;5027617;28;20239;-62
2022/09/30 06:46:13;;;;;;;11.87;10.83;;;;;;;7.96;100.00;96433.88;5027030;28;20224;-62
2022/09/30 06:48:55;;;;;;;12.77;11.67;;;;;;;7.89;100.00;96418.97;4972724;28;20228;-59
2022/09/30 06:51:39;;;;;;;11.47;10.43;;;;;;;7.84;100.00;96431.88;5009465;28;20201;-61
2022/09/30 06:54:09;;;;;;;11.50;10.57;;;;;;;7.87;100.00;96436.78;5021398;28;21067;-58
2022/09/30 06:56:37;;;;;;;12.63;11.33;;;;;;;7.89;100.00;96432.16;5012611;28;20231;-61
2022/09/30 06:59:06;;;;;;;10.77;9.87;;;;;;;8.04;100.00;96432.09;5025051;28;20293;-63
2022/09/30 07:01:34;;;;;;;11.63;10.63;;;;;;;8.18;100.00;96433.06;5031083;28;20207;-62
2022/09/30 07:04:08;;;;;;;10.37;9.57;;;;;;;8.20;100.00;96447.69;4981398;28;20212;-64
2022/09/30 07:06:37;;;;;;;11.20;10.03;;;;;;;8.30;100.00;96439.47;5028591;28;20259;-63
2022/09/30 07:09:08;;;;;;;11.37;9.67;;;;;;;8.38;100.00;96438.56;5025854;28;20282;-62
2022/09/30 07:11:37;;;;;;;10.50;9.50;;;;;;;8.54;100.00;96437.50;5010195;28;20220;-57
2022/09/30 07:14:06;;;;;;;11.47;10.47;;;;;;;8.72;100.00;96438.88;5025427;28;20694;-57
2022/09/30 07:16:34;;;;;;;11.80;10.10;;;;;;;8.76;100.00;96443.59;5030572;28;20650;-61
2022/09/30 07:19:03;;;;;;;11.73;10.70;;;;;;;8.87;100.00;96444.88;5028599;28;20254;-62
2022/09/30 07:21:32;;;;;;;11.40;10.27;;;;;;;9.04;100.00;96447.25;4982310;28;20243;-53
2022/09/30 07:24:00;;;;;;;9.73;8.93;;;;;;;9.14;100.00;96441.63;5024281;28;20211;-60
2022/09/30 07:26:30;;;;;;;10.93;9.93;;;;;;;9.23;100.00;96446.56;5030221;28;20239;-59
2022/09/30 07:29:00;;;;;;;11.33;10.23;;;;;;;9.26;100.00;96451.44;5010396;28;20442;-62
2022/09/30 07:31:28;;;;;;;10.87;9.87;;;;;;;9.47;100.00;96452.41;5026997;28;20297;-60
2022/09/30 07:34:02;;;;;;;10.53;9.60;;;;;;;9.61;100.00;96452.47;5028495;28;20208;-61
2022/09/30 07:36:31;;;;;;;9.23;8.53;;;;;;;9.82;100.00;96439.16;4990660;28;20223;-59
2022/09/30 07:39:04;;;;;;;10.57;9.47;;;;;;;9.70;100.00;96444.19;5029632;28;20621;-63
2022/09/30 07:41:37;;;;;;;10.07;9.00;;;;;;;9.55;100.00;96448.78;5032923;28;20278;-59
2022/09/30 07:44:09;;;;;;;9.57;8.87;;;;;;;9.46;100.00;96449.94;5016469;28;20336;-62
2022/09/30 07:46:39;;;;;;;9.80;8.90;;;;;;;9.26;100.00;96466.50;5032507;28;20702;-62
2022/09/30 07:49:11;;;;;;;10.47;9.67;;;;;;;9.08;100.00;96470.44;5022731;28;20240;-59
2022/09/30 07:51:42;;;;;;;10.57;9.47;;;;;;;8.95;100.00;96465.91;4984834;28;20996;-55
2022/09/30 07:54:12;;;;;;;9.83;9.00;;;;;;;8.94;100.00;96472.19;5023348;28;20396;-58
2022/09/30 07:56:42;;;;;;;10.47;9.67;;;;;;;8.95;100.00;96468.53;5027773;28;20273;-61
2022/09/30 07:59:34;;;;;;;9.37;8.57;;;;;;;9.10;100.00;96476.38;5011413;28;20249;-62
2022/09/30 08:02:02;;;;;;;9.30;8.53;;;;;;;8.86;100.00;96488.16;5024024;28;20303;-63
2022/09/30 08:04:31;;;;;;;9.73;8.83;;;;;;;8.97;100.00;96484.19;5029052;28;20199;-63
2022/09/30 08:07:01;;;;;;;11.30;10.30;;;;;;;9.01;100.00;96485.44;4987698;28;20263;-62
2022/09/30 08:09:30;;;;;;;11.10;10.00;;;;;;;9.09;100.00;96482.69;5028054;28;20219;-58
2022/09/30 08:12:02;;;;;;;9.77;8.97;;;;;;;9.10;100.00;96488.75;5027224;28;20246;-64
2022/09/30 08:14:31;;;;;;;10.10;9.10;;;;;;;9.16;100.00;96488.00;5009717;28;20235;-55
2022/09/30 08:16:59;;;;;;;9.67;8.87;;;;;;;9.10;100.00;96491.41;5025511;28;20224;-62
2022/09/30 08:19:30;;;;;;;10.47;9.57;;;;;;;9.43;100.00;96493.47;5030309;28;20647;-55
2022/09/30 08:21:58;;;;;;;9.57;8.87;;;;;;;9.43;100.00;96493.47;5024061;28;20287;-62
2022/09/30 08:24:27;;;;;;;10.40;9.50;;;;;;;9.44;100.00;96492.47;4981751;28;20600;-61
2022/09/30 08:26:56;;;;;;;9.97;9.07;;;;;;;9.47;100.00;96499.16;5024883;28;20238;-63
2022/09/30 08:29:26;;;;;;;9.90;9.07;;;;;;;9.38;100.00;96504.63;5011266;28;21479;-63
2022/09/30 08:32:14;;;;;;;11.00;10.10;;;;;;;9.85;100.00;96498.81;5023382;28;20204;-60
2022/09/30 08:34:42;;;;;;;10.70;9.70;;;;;;;10.46;100.00;96496.41;5030364;28;20204;-62
2022/09/30 08:37:11;;;;;;;11.77;10.57;;;;;;;10.95;100.00;96483.81;5020208;28;20357;-67
2022/09/30 08:39:39;;;;;;;10.27;9.40;;;;;;;10.91;100.00;96493.19;4978447;28;20312;-54
2022/09/30 08:42:28;;;;;;;11.00;9.90;;;;;;;11.21;100.00;96493.63;5024522;28;20711;-61
2022/09/30 08:45:15;;;;;;;9.40;8.50;;;;;;;11.78;100.00;96492.31;5003546;28;20211;-63
2022/09/30 08:47:47;;;;;;;10.23;9.23;;;;;;;12.13;100.00;96498.13;5030299;28;20196;-62
2022/09/30 08:50:22;;;;;;;9.47;8.53;;;;;;;11.72;100.00;96488.63;5026584;28;20231;-63
2022/09/30 08:52:52;;;;;;;9.70;8.90;;;;;;;11.26;100.00;96496.47;5024014;28;20203;-61
2022/09/30 08:55:23;;;;;;;8.23;7.63;;;;;;;10.78;100.00;96504.59;4973321;28;20542;-60
2022/09/30 08:57:53;;;;;;;9.23;8.47;;;;;;;10.79;100.00;96503.56;4964552;28;20283;-58
2022/09/30 09:00:23;;;;;;;8.90;8.20;;;;;;;11.27;100.00;96514.00;5005155;28;21637;-63
2022/09/30 09:02:53;;;;;;;9.10;8.20;;;;;;;11.66;100.00;96505.41;5027977;28;20254;-62
2022/09/30 09:05:30;;;;;;;8.40;7.80;;;;;;;12.00;100.00;96506.13;5002862;28;20328;-64
2022/09/30 09:08:03;;;;;;;8.70;8.00;;;;;;;11.73;100.00;96506.19;5023083;28;20235;-63
2022/09/30 09:10:39;;;;;;;8.83;8.13;;;;;;;11.69;100.00;96512.94;5022207;28;20423;-64
2022/09/30 09:13:17;;;;;;;9.03;8.20;;;;;;;12.04;100.00;96507.34;4975758;28;20791;-61
2022/09/30 09:15:59;;;;;;;8.73;8.03;;;;;;;12.45;98.83;96498.19;5031099;28;20223;-62
2022/09/30 09:18:42;;;;;;;9.33;8.43;;;;;;;12.15;96.12;96509.34;5007073;28;20511;-57
2022/09/30 09:21:23;;;;;;;8.80;8.10;;;;;;;12.22;96.83;96505.84;5025792;28;20208;-63
2022/09/30 09:23:54;;;;;;;8.50;7.80;;;;;;;12.11;97.87;96504.66;5023565;28;20304;-62
2022/09/30 09:26:24;;;;;;;8.63;8.03;;;;;;;12.03;98.29;96516.34;5021299;28;20322;-59
2022/09/30 09:29:04;;;;;;;8.40;7.70;;;;;;;12.12;99.00;96509.78;4971526;28;20287;-64
2022/09/30 09:31:34;;;;;;;8.30;7.60;;;;;;;12.19;97.94;96508.94;5022760;28;20343;-59
2022/09/30 09:34:10;;;;;;;7.60;6.93;;;;;;;12.21;95.89;96496.25;5026859;28;20781;-59
2022/09/30 09:36:48;;;;;;;7.87;7.20;;;;;;;12.36;95.21;96504.78;5018162;28;20849;-60
2022/09/30 09:39:30;;;;;;;10.13;7.53;;;;;;;12.35;93.37;96491.69;5025852;28;20227;-63
2022/09/30 09:42:04;;;;;;;7.67;7.10;;;;;;;12.30;94.90;96494.97;5027777;28;20318;-65
2022/09/30 09:44:35;;;;;;;7.53;6.93;;;;;;;12.23;97.41;96500.34;4974534;28;20215;-61
2022/09/30 09:47:13;;;;;;;7.50;6.90;;;;;;;12.26;97.05;96504.41;5031398;28;20292;-63
2022/09/30 09:49:42;;;;;;;7.07;6.57;;;;;;;12.44;95.75;96498.38;5008184;28;23430;-60
2022/09/30 09:52:31;;;;;;;6.80;6.40;;;;;;;12.56;94.44;96493.22;5027595;28;20216;-63
2022/09/30 09:54:59;;;;;;;7.30;5.93;;;;;;;12.63;95.79;96488.66;5029205;28;20630;-64
2022/09/30 09:57:31;;;;;;;7.33;6.67;;;;;;;12.40;95.40;96489.22;5027840;28;20425;-59
2022/09/30 10:01:07;;;;;;;6.67;6.27;;;;;;;12.34;97.69;96495.38;4983379;28;20741;-61
2022/09/30 10:03:02;;;;;;;6.87;6.37;;;;;;;12.48;97.58;96488.16;5026198;28;20208;-55
2022/09/30 10:05:38;;;;;;;6.57;6.07;;;;;;;12.37;95.94;96497.59;5011098;28;20429;-65
2022/09/30 10:08:13;;;;;;;5.97;5.57;;;;;;;12.44;97.25;96499.22;5030733;28;20215;-60
2022/09/30 10:10:47;;;;;;;6.50;6.00;;;;;;;12.32;99.74;96502.75;5030584;28;20233;-61
2022/09/30 10:13:21;;;;;;;7.67;6.77;;;;;;;12.37;99.25;96505.56;5026303;28;20275;-63
2022/09/30 10:15:50;;;;;;;6.20;5.80;;;;;;;12.50;100.00;96510.00;4982469;28;20621;-60
2022/09/30 10:18:27;;;;;;;5.67;5.33;;;;;;;12.50;96.67;96524.13;5022817;28;20227;-64
2022/09/30 10:20:57;;;;;;;6.07;5.60;;;;;;;12.61;94.91;96524.47;5008822;28;20258;-62
2022/09/30 10:23:28;;;;;;;5.60;5.20;;;;;;;12.93;92.88;96525.28;5023144;28;20472;-64
2022/09/30 10:25:59;;;;;;;5.77;5.37;;;;;;;12.94;89.98;96516.28;5027913;28;20279;-57
2022/09/30 10:28:30;;;;;;;6.30;5.50;;;;;;;13.06;88.30;96516.41;5023159;28;20475;-61
2022/09/30 10:31:13;;;;;;;5.40;5.00;;;;;;;13.03;88.02;96517.63;4976018;28;20224;-62
2022/09/30 10:33:44;;;;;;;5.77;5.37;;;;;;;12.97;88.33;96520.38;5030767;28;20314;-59
2022/09/30 10:36:15;;;;;;;6.57;5.43;;;;;;;13.04;88.36;96502.50;4990318;28;20719;-62
2022/09/30 10:38:56;;;;;;;5.43;5.00;;;;;;;13.64;86.00;96534.97;5025224;28;20578;-60
2022/09/30 10:41:30;;;;;;;5.87;5.47;;;;;;;13.87;82.58;96527.19;5024854;28;20659;-59
2022/09/30 10:44:00;;;;;;;4.90;4.60;;;;;;;14.26;80.54;96526.13;5028515;28;20216;-63
2022/09/30 10:46:31;;;;;;;5.30;4.90;;;;;;;14.35;78.10;96532.78;4975212;28;20223;-62
2022/09/30 10:49:09;;;;;;;6.17;5.57;;;;;;;14.89;75.42;96526.75;5025538;28;20247;-61
2022/09/30 10:51:38;;;;;;;5.23;4.73;;;;;;;15.38;73.17;96523.16;4994769;28;20486;-62
2022/09/30 10:54:06;;;;;;;5.37;4.87;;;;;;;15.62;72.82;96531.97;5030382;28;20216;-64
2022/09/30 10:56:40;;;;;;;4.67;4.37;;;;;;;16.06;71.29;95185.91;5023339;28;20335;-65
2022/09/30 10:59:23;;;;;;;5.13;4.23;;;;;;;16.45;68.16;96542.53;5021901;28;20302;-62
2022/09/30 11:01:57;;;;;;;4.40;4.00;;;;;;;16.53;67.32;96543.25;4985983;28;20207;-61
2022/09/30 11:04:35;;;;;;;5.73;4.50;;;;;;;16.29;65.70;96546.81;4973905;28;20232;-64
2022/09/30 11:07:15;;;;;;;4.07;3.87;;;;;;;16.00;66.74;96545.91;5019717;28;20320;-65
2022/09/30 11:09:48;;;;;;;4.90;4.47;;;;;;;15.57;67.36;96538.00;5009502;28;20261;-63
2022/09/30 11:12:23;;;;;;;4.50;4.23;;;;;;;15.57;68.11;96534.53;5012513;28;20215;-60
2022/09/30 11:14:58;;;;;;;5.07;4.63;;;;;;;15.55;67.98;96542.75;5013581;28;20586;-60
2022/09/30 11:17:32;;;;;;;4.63;4.33;;;;;;;15.95;67.11;96535.13;5011408;28;20282;-65
2022/09/30 11:20:11;;;;;;;4.50;4.20;;;;;;;16.38;65.58;96528.50;4981322;28;20789;-63
2022/09/30 11:22:47;;;;;;;4.73;4.43;;;;;;;16.26;64.41;96539.22;5007650;28;20290;-62
2022/09/30 11:25:17;;;;;;;4.33;3.93;;;;;;;15.93;64.85;96534.53;5030724;28;21620;-61
2022/09/30 11:27:58;;;;;;;5.00;4.60;;;;;;;16.30;65.74;96542.25;5013572;28;20303;-64
2022/09/30 11:30:31;;;;;;;5.07;4.67;;;;;;;16.43;65.72;96533.16;5005328;28;20200;-63
2022/09/30 11:33:14;;;;;;;4.20;3.90;;;;;;;16.12;64.71;96524.50;5030772;28;20685;-63
2022/09/30 11:35:51;;;;;;;4.00;3.80;;;;;;;16.02;63.98;96522.44;4968854;28;20979;-59
2022/09/30 11:38:35;;;;;;;4.10;3.90;;;;;;;15.97;64.64;96517.81;5027619;28;20217;-60
2022/09/30 11:41:08;;;;;;;4.00;3.70;;;;;;;16.07;64.88;96519.88;5029288;28;20337;-65
2022/09/30 11:43:41;;;;;;;4.97;4.37;;;;;;;15.85;65.77;96525.81;5011980;28;20804;-61
2022/09/30 11:46:27;;;;;;;4.10;3.80;;;;;;;15.18;67.17;96517.09;5024129;28;20311;-61
2022/09/30 11:49:07;;;;;;;4.73;4.33;;;;;;;15.35;65.85;96511.06;5046039;28;20235;-66
2022/09/30 11:51:42;;;;;;;21.77;11.33;;;;;;;15.62;67.23;96508.75;4974083;28;20683;-63
2022/09/30 11:54:25;;;;;;;4.77;4.37;;;;;;;15.86;67.56;96506.06;5028466;28;20404;-58
2022/09/30 11:56:58;;;;;;;3.40;3.20;;;;;;;15.87;65.84;96513.03;5025872;28;20421;-64